Time;durP1;ratioP1;P1;durP2;ratioP2;P2;SDS_P1;SDS_P2;PMS_P1;PMS_P2;Temp;Humidity;BMP_temperature;BMP_pressure;BME280_temperature;BME280_humidity;BME280_pressure;Samples;Min_cycle;Max_cycle;Signal;HPM_P1;HPM_P2
2022/11/06 00:00:00;;;;;;;9.03;7.10;;;;;;;1.96;100.00;101128.69;4844603;29;20108;-80
2022/11/06 00:02:27;;;;;;;9.90;6.57;;;;;;;1.95;100.00;101137.34;4846587;29;20079;-80
2022/11/06 00:06:46;;;;;;;8.43;6.17;;;;;;;1.93;100.00;101138.16;4879608;29;20066;-80
2022/11/06 00:07:45;;;;;;;7.77;5.63;;;;;;;1.95;100.00;101139.97;4886372;29;20095;-79
2022/11/06 00:10:13;;;;;;;9.03;6.00;;;;;;;1.93;100.00;101131.25;4848119;29;20113;-80
2022/11/06 00:12:40;;;;;;;8.43;6.47;;;;;;;1.94;100.00;101129.50;4880589;29;20542;-80
2022/11/06 00:15:07;;;;;;;11.83;8.73;;;;;;;1.98;100.00;101119.16;4874730;29;20045;-80
2022/11/06 00:17:34;;;;;;;10.83;7.07;;;;;;;2.03;100.00;101121.00;4879736;29;20056;-80
2022/11/06 00:20:02;;;;;;;17.20;8.77;;;;;;;2.03;100.00;101119.28;4860356;29;20061;-80
2022/11/06 00:22:35;;;;;;;10.83;7.27;;;;;;;2.01;100.00;101115.75;4846270;29;20048;-80
2022/11/06 00:25:06;;;;;;;10.17;6.67;;;;;;;2.03;100.00;101124.50;4859041;29;20045;-80
2022/11/06 00:27:36;;;;;;;12.80;7.83;;;;;;;2.09;100.00;101126.34;4867676;29;20112;-80
2022/11/06 00:30:10;;;;;;;11.43;6.73;;;;;;;2.12;100.00;101126.41;4862353;29;20097;-80
2022/11/06 00:32:38;;;;;;;11.90;6.60;;;;;;;2.13;100.00;101129.06;4865574;29;20044;-82
2022/11/06 00:35:06;;;;;;;10.10;6.93;;;;;;;2.14;100.00;101135.16;4863361;29;20546;-80
2022/11/06 00:37:33;;;;;;;10.43;6.67;;;;;;;2.11;100.00;101128.16;4858285;29;20049;-79
2022/11/06 00:40:00;;;;;;;8.33;5.50;;;;;;;2.08;100.00;101132.41;4863116;29;20040;-78
2022/11/06 00:42:30;;;;;;;9.33;5.40;;;;;;;2.07;100.00;101135.84;4900906;29;20041;-78
2022/11/06 00:44:57;;;;;;;8.37;4.73;;;;;;;2.04;100.00;101141.88;4868624;29;20051;-79
2022/11/06 00:47:24;;;;;;;6.47;3.63;;;;;;;1.99;100.00;101127.88;4903230;29;20036;-78
2022/11/06 00:49:50;;;;;;;5.10;4.07;;;;;;;1.99;100.00;101130.47;4878313;29;20037;-80
2022/11/06 00:52:17;;;;;;;5.90;3.53;;;;;;;2.01;100.00;101123.56;4885816;29;20079;-78
2022/11/06 00:54:44;;;;;;;8.13;4.60;;;;;;;2.03;100.00;101129.72;4878399;29;20135;-78
2022/11/06 00:57:10;;;;;;;6.97;4.57;;;;;;;2.03;100.00;101134.03;4867771;29;20069;-78
2022/11/06 00:59:37;;;;;;;8.67;4.27;;;;;;;2.02;100.00;101129.66;4852665;29;20051;-78
2022/11/06 01:02:04;;;;;;;6.33;4.23;;;;;;;2.01;100.00;101128.78;4866965;29;20065;-78
2022/11/06 01:04:31;;;;;;;6.43;4.40;;;;;;;1.99;100.00;101120.06;4869441;29;20096;-80
2022/11/06 01:06:57;;;;;;;9.87;4.33;;;;;;;2.02;100.00;101122.75;4848318;29;20051;-81
2022/11/06 01:09:26;;;;;;;9.63;5.67;;;;;;;2.09;100.00;101115.91;4846310;29;20407;-81
2022/11/06 01:11:56;;;;;;;7.53;4.60;;;;;;;2.08;100.00;101112.44;4860812;29;20051;-82
2022/11/06 01:14:41;;;;;;;7.07;4.13;;;;;;;2.07;100.00;101113.28;4866581;29;20064;-80
2022/11/06 01:17:08;;;;;;;6.13;4.53;;;;;;;2.08;100.00;101111.56;4854210;29;20052;-81
2022/11/06 01:19:34;;;;;;;5.80;4.10;;;;;;;2.08;100.00;101112.44;4855787;29;20049;-79
2022/11/06 01:22:01;;;;;;;7.10;4.77;;;;;;;2.11;100.00;101103.81;4856050;29;20054;-79
2022/11/06 01:24:28;;;;;;;8.33;4.60;;;;;;;2.07;100.00;101110.66;4868025;29;20045;-81
2022/11/06 01:26:56;;;;;;;5.80;3.63;;;;;;;2.07;100.00;101108.06;4885894;29;20052;-79
2022/11/06 01:29:42;;;;;;;6.33;4.53;;;;;;;2.04;100.00;101102.81;4857376;29;20135;-80
2022/11/06 01:32:09;;;;;;;6.63;4.30;;;;;;;2.00;100.00;101094.88;4842689;29;20056;-78
2022/11/06 01:34:36;;;;;;;6.60;4.60;;;;;;;1.98;100.00;101100.06;4849651;29;20181;-81
2022/11/06 01:37:03;;;;;;;6.73;4.27;;;;;;;1.92;100.00;101095.59;4855337;29;20499;-80
2022/11/06 01:39:30;;;;;;;6.00;4.33;;;;;;;1.94;100.00;101082.63;4863956;29;20590;-80
2022/11/06 01:41:56;;;;;;;8.47;4.87;;;;;;;1.89;100.00;101082.50;4847560;29;20116;-81
2022/11/06 01:44:32;;;;;;;7.30;4.67;;;;;;;1.88;100.00;101079.88;4878053;29;20183;-82
2022/11/06 01:47:00;;;;;;;5.87;4.10;;;;;;;1.87;100.00;101071.19;4872796;29;20056;-81
2022/11/06 01:49:30;;;;;;;7.07;5.13;;;;;;;1.89;100.00;101074.69;4858223;29;20049;-81
2022/11/06 01:51:58;;;;;;;6.27;4.17;;;;;;;1.86;100.00;101071.16;4847308;29;20068;-78
2022/11/06 01:54:26;;;;;;;8.67;4.37;;;;;;;1.86;100.00;101061.59;4845748;29;20505;-82
2022/11/06 01:56:55;;;;;;;8.97;4.47;;;;;;;1.84;100.00;101052.84;4847930;29;20524;-81
2022/11/06 01:59:24;;;;;;;8.50;5.27;;;;;;;1.91;100.00;101046.94;4867076;29;20045;-82
2022/11/06 02:01:51;;;;;;;6.77;4.30;;;;;;;1.94;100.00;101048.75;4854113;29;20040;-81
2022/11/06 02:04:26;;;;;;;5.60;4.23;;;;;;;1.93;100.00;101052.16;4859803;29;20148;-79
2022/11/06 02:06:52;;;;;;;7.90;4.07;;;;;;;1.98;100.00;101053.16;4866829;29;20498;-79
2022/11/06 02:09:19;;;;;;;8.07;4.47;;;;;;;1.95;100.00;101047.88;4875671;29;20037;-80
2022/11/06 02:11:52;;;;;;;6.83;4.67;;;;;;;2.03;100.00;101043.72;4876331;29;20092;-83
2022/11/06 02:14:21;;;;;;;7.07;4.90;;;;;;;2.12;100.00;101036.06;4852202;29;20045;-83
2022/11/06 02:16:53;;;;;;;11.53;6.17;;;;;;;2.22;100.00;101047.56;4871086;29;20047;-81
2022/11/06 02:19:35;;;;;;;7.77;4.93;;;;;;;2.11;100.00;101046.47;4864281;29;20045;-81
2022/11/06 02:22:20;;;;;;;9.07;5.47;;;;;;;2.14;100.00;101041.31;4857418;29;20040;-81
2022/11/06 02:24:59;;;;;;;8.00;5.20;;;;;;;2.18;100.00;101041.38;4876586;29;20052;-82
2022/11/06 02:27:27;;;;;;;8.87;5.87;;;;;;;2.23;100.00;101028.47;4862773;29;20041;-81
2022/11/06 02:30:03;;;;;;;10.53;6.30;;;;;;;2.19;100.00;101031.88;4852593;29;20036;-81
2022/11/06 02:32:53;;;;;;;9.53;5.93;;;;;;;2.16;100.00;101031.78;4860980;29;20044;-80
2022/11/06 02:35:26;;;;;;;11.07;7.03;;;;;;;2.18;100.00;101036.16;4871429;29;20049;-82
2022/11/06 02:37:57;;;;;;;11.07;6.80;;;;;;;2.15;100.00;101043.94;4845240;29;20045;-82
2022/11/06 02:40:30;;;;;;;14.40;8.33;;;;;;;2.27;100.00;101027.69;4872023;29;20037;-80
2022/11/06 02:42:58;;;;;;;18.13;9.17;;;;;;;2.33;100.00;101037.31;4857673;29;20442;-82
2022/11/06 02:45:26;;;;;;;16.60;8.57;;;;;;;2.38;100.00;101030.47;4849237;29;20127;-82
2022/11/06 02:47:54;;;;;;;13.33;7.33;;;;;;;2.36;100.00;101037.41;4863192;29;20052;-82
2022/11/06 02:50:28;;;;;;;15.90;7.07;;;;;;;2.36;100.00;101037.41;4850314;29;20061;-82
2022/11/06 02:52:59;;;;;;;14.68;7.40;;;;;;;2.41;100.00;101022.69;4865920;29;20518;-82
2022/11/06 02:55:33;;;;;;;16.73;9.17;;;;;;;2.55;100.00;101023.84;4849597;29;20056;-80
2022/11/06 02:58:05;;;;;;;12.68;7.93;;;;;;;2.50;100.00;101022.88;4872667;29;20075;-79
2022/11/06 03:00:33;;;;;;;12.20;7.67;;;;;;;2.48;100.00;101028.06;4884468;23;20116;-84
2022/11/06 03:03:04;;;;;;;18.57;8.07;;;;;;;2.54;100.00;101024.69;4879817;29;20080;-82
2022/11/06 03:05:46;;;;;;;13.47;7.40;;;;;;;2.59;100.00;101025.63;4865060;29;20052;-83
2022/11/06 03:08:17;;;;;;;11.50;7.53;;;;;;;2.66;100.00;101021.41;4891029;29;20064;-84
2022/11/06 03:10:51;;;;;;;11.53;6.97;;;;;;;2.65;100.00;101024.88;4868546;29;20722;-84
2022/11/06 03:13:21;;;;;;;16.83;8.40;;;;;;;2.61;100.00;101023.97;4863824;29;20074;-83
2022/11/06 03:16:03;;;;;;;13.17;7.33;;;;;;;2.64;100.00;101025.72;4853565;29;20051;-85
2022/11/06 03:18:59;;;;;;;11.40;7.27;;;;;;;2.60;100.00;101024.78;4847298;29;20053;-84
2022/11/06 03:21:31;;;;;;;15.87;8.30;;;;;;;2.62;100.00;101020.50;4865117;29;20100;-83
2022/11/06 03:24:10;;;;;;;13.00;7.17;;;;;;;2.56;100.00;101019.50;4873195;29;20056;-84
2022/11/06 03:26:43;;;;;;;12.93;7.23;;;;;;;2.49;100.00;101024.59;4864156;29;20447;-84
2022/11/06 03:29:13;;;;;;;12.50;7.60;;;;;;;2.46;100.00;101019.34;4872225;29;20525;-84
2022/11/06 03:31:54;;;;;;;13.87;7.60;;;;;;;2.42;100.00;101024.47;4868604;29;20052;-83
2022/11/06 03:34:52;;;;;;;12.47;7.30;;;;;;;2.35;100.00;101026.06;4874740;29;20032;-83
2022/11/06 03:37:27;;;;;;;13.10;8.20;;;;;;;2.38;100.00;101017.44;4851366;29;20063;-83
2022/11/06 03:39:56;;;;;;;11.87;7.63;;;;;;;2.30;100.00;101019.03;4855159;29;20108;-83
2022/11/06 03:42:27;;;;;;;12.10;6.63;;;;;;;2.30;100.00;101013.81;4863136;29;20521;-82
2022/11/06 03:44:56;;;;;;;13.20;7.37;;;;;;;2.22;100.00;101006.72;4863951;29;20037;-84
2022/11/06 03:47:31;;;;;;;13.37;8.43;;;;;;;2.22;100.00;101008.47;4857722;29;20419;-83
2022/11/06 03:50:03;;;;;;;11.23;6.43;;;;;;;2.19;100.00;100992.78;4863764;29;20041;-84
2022/11/06 03:52:34;;;;;;;12.40;6.70;;;;;;;2.13;100.00;101001.34;4871882;29;20059;-83
2022/11/06 03:55:05;;;;;;;11.53;7.50;;;;;;;2.09;100.00;100996.03;4861008;29;20100;-84
2022/11/06 03:57:42;;;;;;;13.83;8.10;;;;;;;2.16;100.00;100995.28;4873931;29;20036;-84
2022/11/06 04:00:10;;;;;;;11.47;6.67;;;;;;;2.08;100.00;100999.47;4856307;29;20048;-85
2022/11/06 04:02:40;;;;;;;12.77;8.27;;;;;;;2.13;100.00;101001.34;4858720;29;20075;-85
2022/11/06 04:05:27;;;;;;;12.37;7.07;;;;;;;2.05;100.00;101002.91;4849983;29;20037;-82
2022/11/06 04:16:17;;;;;;;12.07;6.80;;;;;;;2.03;100.00;101004.63;4870773;29;20052;-83
2022/11/06 04:18:43;;;;;;;15.57;7.90;;;;;;;2.05;100.00;100999.44;4865218;29;20044;-84
2022/11/06 04:21:47;;;;;;;12.80;7.40;;;;;;;2.02;100.00;100994.16;4862359;29;20049;-83
2022/11/06 04:27:12;;;;;;;12.70;7.23;;;;;;;2.07;100.00;100998.59;4870885;29;20057;-84
2022/11/06 04:30:01;;;;;;;16.27;9.82;;;;;;;2.05;100.00;100996.81;4878432;29;20040;-83
2022/11/06 04:32:40;;;;;;;16.53;7.67;;;;;;;1.99;100.00;100997.56;4868784;29;20044;-83
2022/11/06 04:35:25;;;;;;;11.23;6.77;;;;;;;1.96;100.00;101000.13;4881158;29;20041;-83
2022/11/06 04:38:17;;;;;;;10.40;6.40;;;;;;;1.91;100.00;101004.38;4858619;29;20474;-83
2022/11/06 04:40:57;;;;;;;11.23;6.97;;;;;;;1.90;100.00;101007.81;4879765;29;20515;-83
2022/11/06 04:43:29;;;;;;;13.20;8.67;;;;;;;1.91;100.00;101001.75;4844574;29;20052;-83
2022/11/06 04:45:58;;;;;;;10.63;6.70;;;;;;;1.90;100.00;100995.66;4898589;29;20052;-84
2022/11/06 04:48:26;;;;;;;11.57;7.03;;;;;;;1.88;100.00;101001.72;4853467;29;20045;-83
2022/11/06 04:50:59;;;;;;;10.03;6.67;;;;;;;1.85;100.00;100996.41;4860058;29;20036;-84
2022/11/06 04:53:28;;;;;;;12.17;5.80;;;;;;;1.73;100.00;100990.97;4859879;29;20105;-83
2022/11/06 04:55:59;;;;;;;8.73;5.60;;;;;;;1.69;100.00;100988.31;4858905;29;20052;-83
2022/11/06 04:58:26;;;;;;;9.33;5.70;;;;;;;1.68;100.00;100985.66;4859267;29;20048;-83
2022/11/06 05:00:53;;;;;;;12.53;6.40;;;;;;;1.71;100.00;100987.47;4867765;29;20044;-83
2022/11/06 05:03:20;;;;;;;10.10;5.53;;;;;;;1.74;100.00;100991.00;4860004;29;20044;-83
2022/11/06 05:05:46;;;;;;;9.30;5.20;;;;;;;1.67;100.00;101002.13;4833322;29;20049;-83
2022/11/06 05:08:15;;;;;;;9.00;5.70;;;;;;;1.60;100.00;100990.72;4842513;29;20044;-83
2022/11/06 05:10:43;;;;;;;11.37;6.23;;;;;;;1.53;100.00;100991.44;4866771;29;20037;-82
2022/11/06 05:13:10;;;;;;;9.50;6.13;;;;;;;1.51;100.00;100990.50;4853912;29;20498;-83
2022/11/06 05:15:37;;;;;;;10.60;6.73;;;;;;;1.52;100.00;100981.88;4861508;29;20045;-82
2022/11/06 05:18:04;;;;;;;12.70;7.67;;;;;;;1.52;100.00;100987.09;4864935;29;20044;-83
2022/11/06 05:20:31;;;;;;;15.07;7.40;;;;;;;1.55;100.00;100983.66;4863240;29;20529;-83
2022/11/06 05:22:59;;;;;;;14.73;7.27;;;;;;;1.55;100.00;100981.94;4861719;29;20466;-84
2022/11/06 05:25:28;;;;;;;14.97;7.47;;;;;;;1.57;100.00;100981.94;4857500;29;20064;-84
2022/11/06 05:27:55;;;;;;;14.13;7.43;;;;;;;1.59;100.00;100986.34;4869539;29;20096;-84
2022/11/06 05:30:23;;;;;;;13.13;7.97;;;;;;;1.65;100.00;100978.66;4863776;29;20041;-83
2022/11/06 05:32:50;;;;;;;15.97;7.77;;;;;;;1.66;100.00;100987.34;4853328;29;20048;-83
2022/11/06 05:35:18;;;;;;;17.90;8.40;;;;;;;1.76;100.00;100985.81;4855261;29;20052;-82
2022/11/06 05:37:46;;;;;;;14.60;8.23;;;;;;;1.74;100.00;100988.38;4879472;29;20490;-83
2022/11/06 05:40:13;;;;;;;13.93;7.23;;;;;;;1.78;100.00;100990.22;4856742;29;20100;-83
2022/11/06 05:42:41;;;;;;;14.33;8.10;;;;;;;1.84;100.00;100987.72;4864657;29;20041;-84
2022/11/06 05:45:09;;;;;;;17.77;8.83;;;;;;;1.94;100.00;100986.22;4865076;29;20076;-83
2022/11/06 05:47:39;;;;;;;12.50;7.97;;;;;;;1.93;100.00;100977.50;4845130;29;20425;-84
2022/11/06 05:50:06;;;;;;;13.37;7.83;;;;;;;2.04;100.00;100993.34;4859687;29;20096;-84
2022/11/06 05:52:33;;;;;;;18.03;8.83;;;;;;;1.97;100.00;100981.91;4872760;29;20045;-83
2022/11/06 05:55:00;;;;;;;15.57;8.60;;;;;;;2.02;100.00;100978.50;4865779;29;20036;-83
2022/11/06 05:57:27;;;;;;;15.80;8.57;;;;;;;2.02;100.00;100974.22;4860042;29;20065;-81
2022/11/06 05:59:54;;;;;;;12.27;6.80;;;;;;;2.00;100.00;100970.66;4868859;29;20036;-82
2022/11/06 06:02:20;;;;;;;17.03;9.40;;;;;;;2.06;100.00;100973.41;4847607;29;20509;-83
2022/11/06 06:04:47;;;;;;;14.60;8.37;;;;;;;2.05;100.00;100966.44;4865004;29;20409;-83
2022/11/06 06:07:14;;;;;;;13.97;8.40;;;;;;;2.10;100.00;100961.28;4852155;29;20054;-84
2022/11/06 06:09:41;;;;;;;17.33;8.33;;;;;;;2.13;100.00;100970.06;4865120;29;20040;-84
2022/11/06 06:12:10;;;;;;;13.90;7.83;;;;;;;2.10;100.00;100971.72;4846204;29;20040;-83
2022/11/06 06:14:36;;;;;;;15.33;8.27;;;;;;;2.18;100.00;100971.00;4850908;29;20132;-83
2022/11/06 06:17:03;;;;;;;12.60;7.80;;;;;;;2.13;100.00;100967.47;4834953;29;20052;-85
2022/11/06 06:19:30;;;;;;;15.23;8.10;;;;;;;2.09;100.00;100970.84;4863510;29;20048;-83
2022/11/06 06:21:56;;;;;;;12.63;7.77;;;;;;;2.19;100.00;100962.38;4847861;29;20132;-82
2022/11/06 06:24:23;;;;;;;13.90;8.33;;;;;;;2.17;100.00;100963.16;4849158;29;20083;-83
2022/11/06 06:26:50;;;;;;;14.73;8.73;;;;;;;2.11;100.00;100965.69;4848089;29;20041;-84
2022/11/06 06:29:16;;;;;;;13.90;7.57;;;;;;;2.16;100.00;100967.50;4847794;29;20041;-82
2022/11/06 06:31:43;;;;;;;17.43;9.40;;;;;;;2.19;100.00;100978.00;4851569;29;20120;-83
2022/11/06 06:34:10;;;;;;;14.53;9.10;;;;;;;2.17;100.00;100978.81;4848541;29;20044;-84
2022/11/06 06:36:36;;;;;;;16.60;9.27;;;;;;;2.19;100.00;100979.72;4865835;29;20111;-83
2022/11/06 06:39:03;;;;;;;14.43;9.30;;;;;;;2.25;100.00;100985.91;4876336;29;20072;-83
2022/11/06 06:41:29;;;;;;;20.17;8.73;;;;;;;2.28;100.00;100986.84;4876427;29;20100;-83
2022/11/06 06:43:56;;;;;;;15.70;8.47;;;;;;;2.33;100.00;100988.66;4862517;29;20048;-82
2022/11/06 06:46:23;;;;;;;17.93;8.60;;;;;;;2.34;100.00;100997.38;4858417;29;20053;-83
2022/11/06 06:48:49;;;;;;;15.53;7.93;;;;;;;2.37;100.00;100992.22;4870537;29;20088;-83
2022/11/06 06:51:16;;;;;;;17.83;9.40;;;;;;;2.37;100.00;100987.00;4852110;29;20053;-83
2022/11/06 06:53:49;;;;;;;16.93;9.33;;;;;;;2.37;100.00;100992.22;4849300;29;20052;-83
2022/11/06 06:56:16;;;;;;;17.33;8.83;;;;;;;2.44;100.00;100989.75;4834945;29;21489;-83
2022/11/06 06:58:43;;;;;;;15.37;9.47;;;;;;;2.42;100.00;100985.34;4879131;29;20049;-83
2022/11/06 07:01:09;;;;;;;20.20;9.40;;;;;;;2.56;100.00;100988.22;4879895;29;20039;-83
2022/11/06 07:03:37;;;;;;;18.37;9.17;;;;;;;2.64;100.00;100982.25;4868886;29;20036;-83
2022/11/06 07:06:04;;;;;;;17.07;8.87;;;;;;;2.70;100.00;100994.53;4870818;29;20100;-81
2022/11/06 07:08:31;;;;;;;16.60;9.23;;;;;;;2.68;100.00;100994.50;4881064;29;20053;-83
2022/11/06 07:10:59;;;;;;;15.53;9.27;;;;;;;2.81;100.00;101001.69;4885475;29;20510;-82
2022/11/06 07:13:26;;;;;;;18.30;9.73;;;;;;;2.85;100.00;101002.59;4865615;29;20108;-82
2022/11/06 07:16:05;;;;;;;17.20;9.23;;;;;;;2.95;100.00;100994.09;4860338;29;20105;-83
2022/11/06 07:18:33;;;;;;;17.43;9.77;;;;;;;3.11;100.00;101000.41;4846065;29;20059;-83
2022/11/06 07:20:59;;;;;;;16.53;9.67;;;;;;;3.14;100.00;100999.59;4851575;29;20044;-82
2022/11/06 07:23:26;;;;;;;14.40;8.50;;;;;;;3.22;100.00;100992.75;4865787;29;20084;-83
2022/11/06 07:25:53;;;;;;;14.30;8.60;;;;;;;3.36;100.00;100997.31;4864273;29;20048;-84
2022/11/06 07:28:20;;;;;;;17.63;9.40;;;;;;;3.42;100.00;100998.25;4841762;29;20044;-83
2022/11/06 07:30:47;;;;;;;18.93;9.67;;;;;;;3.48;100.00;101001.81;4844027;29;20037;-84
2022/11/06 07:33:13;;;;;;;16.33;9.83;;;;;;;3.52;100.00;100987.94;4848197;29;20072;-81
2022/11/06 07:35:40;;;;;;;19.23;9.20;;;;;;;3.67;100.00;100993.38;4870286;29;20044;-81
2022/11/06 07:38:07;;;;;;;18.73;9.07;;;;;;;3.75;100.00;100998.69;4879475;29;20044;-81
2022/11/06 07:40:34;;;;;;;17.90;10.23;;;;;;;3.83;100.00;100994.44;4849198;29;20103;-81
2022/11/06 07:43:08;;;;;;;20.97;10.63;;;;;;;3.93;100.00;100993.69;4876471;29;20037;-81
2022/11/06 07:45:35;;;;;;;;;;;;;;;3.96;100.00;100992.88;4865503;29;20049;-80
2022/11/06 07:48:02;;;;;;;20.67;9.63;;;;;;;4.11;100.00;100985.16;4862344;29;19927;-80
2022/11/06 07:50:29;;;;;;;17.10;8.87;;;;;;;4.14;100.00;100981.72;4885485;29;20097;-81
2022/11/06 07:52:56;;;;;;;16.93;9.67;;;;;;;4.30;100.00;100990.63;4878462;29;20121;-82
2022/11/06 07:55:23;;;;;;;17.10;9.23;;;;;;;4.36;100.00;100975.84;4872995;29;20041;-82
2022/11/06 07:57:49;;;;;;;18.53;8.93;;;;;;;4.53;100.00;100976.88;4876611;29;20096;-81
2022/11/06 08:00:16;;;;;;;14.47;8.97;;;;;;;4.63;100.00;100979.59;4857623;29;20108;-82
2022/11/06 08:02:43;;;;;;;19.60;8.70;;;;;;;4.79;100.00;100984.06;4870189;29;20037;-82
2022/11/06 08:05:09;;;;;;;15.00;8.57;;;;;;;5.03;100.00;100975.53;4861801;29;20044;-81
2022/11/06 08:07:36;;;;;;;17.13;8.93;;;;;;;5.09;100.00;100975.59;4865142;29;20069;-82
2022/11/06 08:10:03;;;;;;;19.93;11.27;;;;;;;5.27;100.00;100967.84;4867594;29;20053;-83
2022/11/06 08:12:30;;;;;;;43.70;24.77;;;;;;;5.40;100.00;100967.94;4865509;29;20036;-85
2022/11/06 08:14:57;;;;;;;16.17;9.17;;;;;;;5.42;100.00;100969.69;4856806;29;20571;-83
2022/11/06 08:17:24;;;;;;;16.00;10.87;;;;;;;5.57;100.00;100971.50;4848170;29;20049;-84
2022/11/06 08:19:50;;;;;;;15.37;8.47;;;;;;;5.66;100.00;100968.94;4882358;29;20096;-83
2022/11/06 08:22:18;;;;;;;10.73;6.60;;;;;;;5.76;100.00;100969.84;4870148;29;20050;-84
2022/11/06 08:24:44;;;;;;;14.40;8.47;;;;;;;5.74;100.00;100974.22;4870025;29;20096;-82
2022/11/06 08:27:11;;;;;;;10.93;7.50;;;;;;;5.86;100.00;100969.88;4868610;29;20475;-82
2022/11/06 08:29:37;;;;;;;11.57;6.50;;;;;;;5.88;100.00;100967.25;4874241;29;20045;-84
2022/11/06 08:32:07;;;;;;;19.13;12.47;;;;;;;6.02;100.00;100962.97;4865006;29;20518;-83
2022/11/06 08:34:34;;;;;;;13.10;7.13;;;;;;;6.14;100.00;100957.78;4870280;29;20041;-83
2022/11/06 08:37:01;;;;;;;15.60;10.77;;;;;;;6.16;100.00;100944.66;4871973;29;20055;-81
2022/11/06 08:39:28;;;;;;;12.57;7.87;;;;;;;6.09;100.00;100949.00;4859296;29;20077;-81
2022/11/06 08:41:55;;;;;;;11.93;6.80;;;;;;;6.21;100.00;100948.16;4862458;29;20134;-80
2022/11/06 08:44:23;;;;;;;13.60;7.97;;;;;;;6.26;100.00;100945.53;4867416;29;20040;-83
2022/11/06 08:46:50;;;;;;;10.07;6.43;;;;;;;6.18;100.00;100945.53;4851966;29;20495;-84
2022/11/06 08:49:18;;;;;;;20.47;10.43;;;;;;;6.17;100.00;100938.53;4875252;29;20040;-81
2022/11/06 08:51:44;;;;;;;10.50;6.83;;;;;;;6.08;100.00;100944.63;4874344;29;20040;-81
2022/11/06 08:54:11;;;;;;;11.50;6.30;;;;;;;6.09;100.00;100930.66;4853265;29;20073;-81
2022/11/06 08:56:38;;;;;;;9.47;6.60;;;;;;;6.17;100.00;100931.53;4876155;29;20043;-82
2022/11/06 08:59:05;;;;;;;16.80;7.53;;;;;;;6.40;100.00;100925.47;4867933;29;20068;-84
2022/11/06 09:01:31;;;;;;;10.37;6.50;;;;;;;6.48;100.00;100926.34;4865136;29;20379;-85
2022/11/06 09:03:58;;;;;;;8.80;5.60;;;;;;;6.51;100.00;100928.94;4857797;29;20062;-83
2022/11/06 09:06:25;;;;;;;12.23;5.80;;;;;;;6.54;100.00;100936.81;4846428;29;20103;-83
2022/11/06 09:08:51;;;;;;;10.00;6.80;;;;;;;6.58;100.00;100933.34;4846148;29;20066;-83
2022/11/06 09:11:18;;;;;;;11.20;6.50;;;;;;;6.55;100.00;100935.94;4857180;29;20104;-84
2022/11/06 09:13:45;;;;;;;10.23;5.77;;;;;;;6.73;100.00;100928.09;4866525;29;20534;-87
2022/11/06 09:16:12;;;;;;;10.97;6.23;;;;;;;6.73;100.00;100942.97;4847157;29;20451;-84
2022/11/06 09:18:42;;;;;;;10.23;6.07;;;;;;;6.89;100.00;100943.81;4854788;29;20053;-85
2022/11/06 09:21:09;;;;;;;11.00;6.47;;;;;;;6.98;100.00;100930.69;4961302;23;20055;-82
2022/11/06 09:23:36;;;;;;;16.53;5.53;;;;;;;7.02;100.00;100930.66;4869086;29;20056;-84
2022/11/06 09:26:02;;;;;;;10.50;6.60;;;;;;;7.13;100.00;100932.41;4869704;29;20043;-83
2022/11/06 09:28:29;;;;;;;15.23;6.33;;;;;;;7.15;100.00;100930.66;4867692;29;20100;-86
2022/11/06 09:30:56;;;;;;;9.73;5.77;;;;;;;7.37;100.00;100929.72;4865827;29;20041;-84
2022/11/06 09:33:24;;;;;;;9.13;5.53;;;;;;;7.37;100.00;100920.94;4851612;29;20044;-85
2022/11/06 09:35:51;;;;;;;8.53;5.23;;;;;;;7.42;100.00;100919.19;4882676;29;20041;-86
2022/11/06 09:38:18;;;;;;;8.37;5.00;;;;;;;7.60;100.00;100916.50;4859702;29;20049;-84
2022/11/06 09:40:57;;;;;;;8.97;5.50;;;;;;;7.83;100.00;100921.66;4862480;29;20569;-83
2022/11/06 09:43:49;;;;;;;8.27;5.60;;;;;;;7.92;100.00;100926.84;4872388;29;20036;-85
2022/11/06 09:46:34;;;;;;;11.27;5.20;;;;;;;7.95;100.00;100931.22;4865905;29;20055;-84
2022/11/06 09:49:11;;;;;;;10.20;5.40;;;;;;;8.05;100.00;100922.38;4864825;29;20073;-83
2022/11/06 09:51:47;;;;;;;8.97;5.43;;;;;;;8.22;100.00;100924.91;4871615;29;20127;-85
2022/11/06 09:54:19;;;;;;;8.00;4.73;;;;;;;8.22;100.00;100920.53;4886678;29;20108;-86
2022/11/06 09:56:48;;;;;;;6.77;4.73;;;;;;;8.39;100.00;100929.19;4877972;29;20139;-85
2022/11/06 09:59:17;;;;;;;8.97;5.37;;;;;;;8.49;100.00;100922.09;4884070;29;20490;-86
2022/11/06 10:01:51;;;;;;;10.00;5.70;;;;;;;8.71;100.00;100925.44;4850561;29;20572;-84
2022/11/06 10:05:04;;;;;;;8.03;4.90;;;;;;;8.88;100.00;100917.41;4871335;29;20041;-87
2022/11/06 10:07:37;;;;;;;6.95;5.13;;;;;;;9.18;100.00;100917.09;4868097;29;20121;-84
2022/11/06 10:10:06;;;;;;;7.73;4.80;;;;;;;9.32;100.00;100909.03;4872782;29;20045;-84
2022/11/06 10:12:58;;;;;;;7.07;4.78;;;;;;;9.46;100.00;100911.50;4869527;29;20043;-89
2022/11/06 10:15:46;;;;;;;8.13;5.28;;;;;;;9.56;100.00;100897.31;4881877;29;20044;-81
2022/11/06 10:18:17;;;;;;;8.27;4.90;;;;;;;9.66;100.00;100896.28;4879027;29;20421;-84
2022/11/06 10:20:50;;;;;;;8.00;4.43;;;;;;;9.88;100.00;100889.84;4892152;29;20066;-85
2022/11/06 10:23:20;;;;;;;5.15;4.13;;;;;;;9.89;97.93;100893.34;4866208;29;20044;-84
2022/11/06 10:25:57;;;;;;;7.65;5.47;;;;;;;10.01;100.00;100890.56;4887755;29;20037;-86
2022/11/06 10:28:40;;;;;;;7.32;4.28;;;;;;;10.06;98.36;100893.13;4866783;29;20053;-85
2022/11/06 10:31:06;;;;;;;9.23;4.75;;;;;;;10.00;95.65;100888.78;4865538;29;20037;-83
2022/11/06 10:33:45;;;;;;;7.45;4.40;;;;;;;10.09;95.61;100890.44;4860099;29;20049;-84
2022/11/06 10:36:16;;;;;;;10.48;6.55;;;;;;;10.18;95.32;100887.66;4865129;29;20059;-84
2022/11/06 10:38:48;;;;;;;20.48;13.30;;;;;;;10.15;95.09;100883.28;4875755;29;20054;-85
2022/11/06 10:41:18;;;;;;;8.90;6.32;;;;;;;10.16;94.41;100878.88;4881508;29;20041;-86
2022/11/06 10:43:52;;;;;;;7.15;5.38;;;;;;;10.27;93.23;100876.13;4866357;29;20044;-84
2022/11/06 10:46:34;;;;;;;7.80;5.18;;;;;;;10.37;95.92;100872.44;4852052;29;20513;-86
2022/11/06 10:49:04;;;;;;;8.57;4.60;;;;;;;10.54;95.25;100878.31;4869068;29;20583;-84
2022/11/06 10:51:55;;;;;;;6.22;4.28;;;;;;;10.65;93.87;100867.56;4941259;23;20440;-84
2022/11/06 10:54:51;;;;;;;7.25;4.10;;;;;;;10.88;92.55;100869.78;4877202;29;20480;-82
2022/11/06 10:57:26;;;;;;;8.88;4.63;;;;;;;10.91;89.96;100869.72;4880613;29;20047;-83
2022/11/06 10:59:53;;;;;;;5.70;4.50;;;;;;;11.02;91.76;100874.84;4861208;29;20085;-83
2022/11/06 11:02:30;;;;;;;10.18;5.20;;;;;;;11.05;90.03;100857.13;4846443;29;20474;-82
2022/11/06 11:04:57;;;;;;;7.50;5.35;;;;;;;11.17;87.53;100867.44;4859733;29;20048;-83
2022/11/06 11:07:28;;;;;;;8.30;4.60;;;;;;;11.17;88.32;100856.88;4827791;29;20041;-83
2022/11/06 11:09:55;;;;;;;12.43;8.48;;;;;;;11.25;87.67;100859.38;4844206;29;20072;-82
2022/11/06 11:12:31;;;;;;;9.38;6.00;;;;;;;11.24;87.40;100850.56;4848986;29;20044;-82
2022/11/06 11:15:11;;;;;;;7.35;4.63;;;;;;;11.34;88.84;100842.44;4850680;29;20075;-82
2022/11/06 11:17:39;;;;;;;7.72;4.53;;;;;;;11.43;86.89;100832.53;4864902;29;20052;-82
2022/11/06 11:20:30;;;;;;;10.77;8.05;;;;;;;11.36;84.96;100825.66;4855510;29;20145;-82
2022/11/06 11:23:14;;;;;;;7.15;4.68;;;;;;;11.46;83.85;100827.19;4848474;29;20497;-82
2022/11/06 11:25:42;;;;;;;;;;;;;;;11.51;83.68;100817.38;4863418;29;20097;-83
2022/11/06 11:28:33;;;;;;;7.20;4.00;;;;;;;11.44;84.28;100815.78;4850725;29;19923;-84
2022/11/06 11:31:09;;;;;;;5.38;3.78;;;;;;;11.36;83.10;100816.84;4847178;29;20105;-85
2022/11/06 11:33:37;;;;;;;8.77;4.40;;;;;;;11.41;84.16;100817.59;4845916;29;20142;-84
2022/11/06 11:36:05;;;;;;;9.80;4.38;;;;;;;11.43;84.93;100810.50;4845636;29;20054;-86
2022/11/06 11:38:37;;;;;;;8.38;4.40;;;;;;;11.45;82.92;100814.88;4839311;29;20073;-81
2022/11/06 11:41:20;;;;;;;7.25;4.47;;;;;;;11.48;83.64;100812.16;4848026;29;20050;-83
2022/11/06 11:44:04;;;;;;;7.47;4.30;;;;;;;11.44;82.71;100818.44;4843020;29;20071;-83
2022/11/06 11:46:32;;;;;;;7.03;5.13;;;;;;;11.45;84.74;100819.28;4880383;29;20140;-83